Time;durP1;ratioP1;P1;durP2;ratioP2;P2;SDS_P1;SDS_P2;PMS_P1;PMS_P2;Temp;Humidity;BMP_temperature;BMP_pressure;BME280_temperature;BME280_humidity;BME280_pressure;Samples;Min_cycle;Max_cycle;Signal;HPM_P1;HPM_P2
2021/12/18 00:09:35;;;;;;;1.33;0.75;;;12.30;66.90;;;;;;20709857;28;20096;-79
2021/12/18 00:19:36;;;;;;;1.25;0.68;;;12.30;67.00;;;;;;20711514;28;20034;-78
2021/12/18 00:29:36;;;;;;;1.77;0.53;;;12.30;67.00;;;;;;20726699;28;20058;-78
2021/12/18 00:39:44;;;;;;;0.95;0.40;;;12.30;67.10;;;;;;20726219;28;20288;-79
2021/12/18 00:49:44;;;;;;;1.48;0.68;;;12.30;67.10;;;;;;20743452;28;20121;-79
2021/12/18 00:59:45;;;;;;;0.73;0.63;;;12.20;67.00;;;;;;20725395;28;20026;-79
2021/12/18 01:09:59;;;;;;;2.60;0.50;;;12.30;67.10;;;;;;20724571;28;20480;-79
2021/12/18 01:30:20;;;;;;;0.63;0.30;;;12.20;67.10;;;;;;20725969;28;20096;-79
2021/12/18 01:40:22;;;;;;;0.50;0.40;;;12.20;67.80;;;;;;20740071;28;20046;-78
2021/12/18 02:00:42;;;;;;;1.05;0.50;;;12.20;67.30;;;;;;20755111;28;20034;-79
2021/12/18 02:10:50;;;;;;;1.20;0.35;;;12.30;67.30;;;;;;20721358;28;20522;-79
2021/12/18 02:20:51;;;;;;;1.00;0.60;;;12.20;67.30;;;;;;20753258;28;20042;-79
2021/12/18 02:30:52;;;;;;;0.95;0.70;;;12.20;67.30;;;;;;20718602;28;20124;-78
2021/12/18 02:41:26;;;;;;;1.15;0.60;;;12.20;67.40;;;;;;20735252;28;20046;-79
2021/12/18 02:51:27;;;;;;;1.90;0.73;;;12.20;67.40;;;;;;20754866;28;20038;-79
2021/12/18 03:01:28;;;;;;;1.70;0.60;;;12.10;67.40;;;;;;20733768;28;20042;-79
2021/12/18 03:32:07;;;;;;;0.65;0.50;;;12.10;67.50;;;;;;20747993;28;20096;-78
2021/12/18 03:42:10;;;;;;;1.05;0.60;;;12.10;67.40;;;;;;20746903;28;20026;-78
2021/12/18 03:52:10;;;;;;;0.55;0.40;;;12.10;67.50;;;;;;20729843;28;20045;-79
2021/12/18 04:02:11;;;;;;;0.45;0.28;;;12.10;67.50;;;;;;20729108;28;20106;-79
2021/12/18 04:12:12;;;;;;;0.60;0.40;;;12.10;68.20;;;;;;20727838;28;20038;-79
2021/12/18 04:22:13;;;;;;;0.43;0.30;;;12.10;67.50;;;;;;20744225;28;20120;-79
2021/12/18 04:32:14;;;;;;;0.55;0.30;;;12.10;67.60;;;;;;20743033;28;20038;-79
2021/12/18 04:42:14;;;;;;;0.60;0.25;;;12.20;67.70;;;;;;20725669;28;20544;-80
2021/12/18 04:52:15;;;;;;;0.93;0.30;;;12.10;67.60;;;;;;20725923;28;20045;-79
2021/12/18 05:02:20;;;;;;;0.30;0.28;;;12.00;67.50;;;;;;20725477;28;20042;-79
2021/12/18 05:12:20;;;;;;;0.43;0.43;;;12.00;67.50;;;;;;20741749;28;20069;-79
2021/12/18 05:22:21;;;;;;;0.50;0.20;;;12.40;66.90;;;;;;20745267;28;20029;-79
2021/12/18 05:32:22;;;;;;;0.77;0.30;;;13.10;65.20;;;;;;20757297;28;20042;-80
2021/12/18 05:42:22;;;;;;;0.85;0.20;;;13.80;63.10;;;;;;20756436;28;20030;-80
2021/12/18 05:52:24;;;;;;;0.35;0.30;;;14.50;61.00;;;;;;20739185;28;20079;-79
2021/12/18 06:02:26;;;;;;;0.30;0.20;;;15.00;59.20;;;;;;20738989;28;20380;-79
2021/12/18 06:12:26;;;;;;;0.20;0.20;;;15.30;58.30;;;;;;20754611;28;20066;-80
2021/12/18 06:22:27;;;;;;;0.13;0.13;;;15.30;58.00;;;;;;20752951;28;20144;-79
2021/12/18 06:32:28;;;;;;;0.47;0.30;;;15.00;58.20;;;;;;20752548;28;20369;-77
2021/12/18 06:42:28;;;;;;;0.10;0.10;;;14.40;59.20;;;;;;20735109;28;20500;-75
2021/12/18 06:52:29;;;;;;;0.10;0.10;;;13.90;60.40;;;;;;20751477;28;20037;-79
2021/12/18 07:02:30;;;;;;;0.20;0.10;;;13.50;61.50;;;;;;20722929;28;20033;-78
2021/12/18 07:12:32;;;;;;;0.40;0.20;;;13.30;62.40;;;;;;20728473;28;20088;-77
2021/12/18 07:22:32;;;;;;;0.70;0.30;;;13.00;63.20;;;;;;20748573;28;20068;-80
2021/12/18 07:32:34;;;;;;;0.28;0.20;;;12.90;63.90;;;;;;20747282;28;20042;-80
2021/12/18 07:42:35;;;;;;;1.08;0.20;;;12.80;64.60;;;;;;20716237;28;20033;-76
2021/12/18 07:52:36;;;;;;;0.43;0.20;;;12.60;64.80;;;;;;20727476;28;20045;-75
2021/12/18 08:02:37;;;;;;;0.38;0.20;;;12.50;65.10;;;;;;20712632;28;20076;-77
2021/12/18 08:12:37;;;;;;;0.55;0.40;;;12.50;65.40;;;;;;20728538;28;20137;-73
2021/12/18 08:22:39;;;;;;;0.57;0.22;;;12.50;65.50;;;;;;20713959;28;20038;-74
2021/12/18 08:32:43;;;;;;;3.67;0.45;;;12.50;65.50;;;;;;20741658;28;20041;-84
2021/12/18 08:42:44;;;;;;;1.10;0.60;;;12.50;65.60;;;;;;20729551;28;20034;-79
2021/12/18 08:52:45;;;;;;;1.35;0.60;;;12.50;65.70;;;;;;20742337;28;20392;-80
2021/12/18 09:02:47;;;;;;;2.85;0.93;;;12.50;65.70;;;;;;20740812;28;20487;-79
2021/12/18 09:12:47;;;;;;;2.42;1.10;;;12.50;65.90;;;;;;20726482;28;20037;-77
2021/12/18 09:22:48;;;;;;;2.53;1.00;;;12.60;66.00;;;;;;20706336;28;20062;-78
2021/12/18 09:32:50;;;;;;;1.42;1.00;;;12.60;66.10;;;;;;20727472;28;20069;-78
2021/12/18 09:42:51;;;;;;;1.77;0.80;;;12.50;66.20;;;;;;20740995;28;20076;-77
2021/12/18 09:52:52;;;;;;;6.90;1.10;;;12.50;66.40;;;;;;20707478;28;20504;-80
2021/12/18 10:02:53;;;;;;;2.17;1.10;;;12.40;66.40;;;;;;20739897;28;20038;-82
2021/12/18 10:13:09;;;;;;;0.98;0.80;;;12.40;66.60;;;;;;20744755;28;20050;-77
2021/12/18 10:23:10;;;;;;;2.10;1.07;;;12.40;66.70;;;;;;20788737;28;20125;-82
2021/12/18 10:33:11;;;;;;;1.00;0.63;;;12.40;66.90;;;;;;20740445;28;20082;-76
2021/12/18 10:43:14;;;;;;;1.23;0.63;;;12.40;66.90;;;;;;20714373;28;20472;-78
2021/12/18 10:53:21;;;;;;;2.65;1.00;;;12.40;67.00;;;;;;20732883;28;20048;-78
2021/12/18 11:03:24;;;;;;;1.20;0.65;;;12.40;67.00;;;;;;20766607;28;20033;-75
2021/12/18 11:13:38;;;;;;;2.30;0.88;;;12.40;67.10;;;;;;20751766;28;20073;-76
2021/12/18 11:24:04;;;;;;;1.15;0.60;;;12.90;66.60;;;;;;21136825;23;20473;-75
2021/12/18 11:34:09;;;;;;;0.65;0.43;;;13.30;65.00;;;;;;20888217;28;20098;-82
2021/12/18 11:44:28;;;;;;;1.27;0.57;;;13.90;63.20;;;;;;20904781;28;20041;-82
2021/12/18 11:54:48;;;;;;;1.67;0.52;;;14.50;61.50;;;;;;20888124;28;20498;-84
2021/12/18 12:05:04;;;;;;;1.27;0.82;;;14.90;60.30;;;;;;20855794;28;20055;-77
2021/12/18 12:15:15;;;;;;;0.75;0.60;;;15.00;59.70;;;;;;20845157;28;20033;-77
2021/12/18 12:25:19;;;;;;;0.85;0.50;;;15.10;59.60;;;;;;20875019;28;20048;-78
2021/12/18 12:35:20;;;;;;;2.20;0.70;;;14.70;60.20;;;;;;20801437;28;20120;-78
2021/12/18 12:45:39;;;;;;;1.57;0.90;;;14.30;61.50;;;;;;20862575;28;20502;-78
2021/12/18 12:55:42;;;;;;;1.55;0.52;;;13.80;62.80;;;;;;20852231;28;20670;-77
2021/12/18 13:05:54;;;;;;;1.42;0.75;;;13.40;63.80;;;;;;20821626;28;20029;-76
2021/12/18 13:16:03;;;;;;;2.28;0.77;;;13.20;64.70;;;;;;20798046;28;20060;-79
2021/12/18 13:26:08;;;;;;;1.48;0.60;;;13.00;65.40;;;;;;20826037;28;20112;-77
2021/12/18 13:36:08;;;;;;;1.38;0.40;;;12.80;66.00;;;;;;20902482;28;20782;-77
2021/12/18 13:46:12;;;;;;;1.05;0.52;;;12.70;66.90;;;;;;20830422;28;20094;-78
2021/12/18 13:56:13;;;;;;;4.25;0.70;;;12.70;66.70;;;;;;20822344;28;20453;-77
2021/12/18 14:06:15;;;;;;;0.60;0.55;;;12.60;67.10;;;;;;20857038;28;20069;-78
2021/12/18 14:16:16;;;;;;;0.80;0.63;;;12.60;67.40;;;;;;20813090;28;20034;-76
2021/12/18 14:26:24;;;;;;;1.48;0.60;;;12.60;67.30;;;;;;20828235;28;20052;-74
2021/12/18 14:36:52;;;;;;;1.58;0.50;;;12.70;67.30;;;;;;20829912;28;20307;-78
2021/12/18 14:47:27;;;;;;;4.13;0.55;;;12.70;67.40;;;;;;20814555;28;20041;-79
2021/12/18 14:57:30;;;;;;;1.65;0.70;;;12.70;67.40;;;;;;20817399;28;20045;-79
2021/12/18 15:07:32;;;;;;;0.55;0.50;;;12.70;67.40;;;;;;20831424;28;20041;-79
2021/12/18 15:17:34;;;;;;;1.33;0.80;;;12.60;67.40;;;;;;20813970;28;20067;-78
2021/12/18 15:27:35;;;;;;;0.65;0.40;;;12.60;68.10;;;;;;20812232;28;20514;-80
2021/12/18 15:37:37;;;;;;;1.27;1.17;;;12.60;67.50;;;;;;20812844;28;20120;-79
2021/12/18 15:47:39;;;;;;;2.70;1.13;;;12.70;67.40;;;;;;20831519;28;20048;-81
2021/12/18 15:57:40;;;;;;;2.60;0.82;;;13.10;66.40;;;;;;20811874;28;20140;-79
2021/12/18 16:07:42;;;;;;;2.67;0.80;;;13.70;65.00;;;;;;20811238;28;20037;-78
2021/12/18 16:17:43;;;;;;;4.00;0.88;;;14.30;63.40;;;;;;20809102;28;20048;-80
2021/12/18 16:27:44;;;;;;;2.38;0.80;;;14.80;62.10;;;;;;20825065;28;20033;-80
2021/12/18 16:37:56;;;;;;;2.55;1.30;;;15.10;61.50;;;;;;20791752;28;20037;-76
2021/12/18 16:47:57;;;;;;;3.53;1.10;;;15.10;61.50;;;;;;20807406;28;20506;-80
2021/12/18 16:58:13;;;;;;;5.90;1.50;;;14.80;62.50;;;;;;20816668;28;20038;-78
2021/12/18 17:08:18;;;;;;;2.83;1.20;;;14.20;63.70;;;;;;20791233;28;20045;-79
2021/12/18 17:18:18;;;;;;;3.33;1.50;;;13.70;64.70;;;;;;20791576;28;20049;-75
2021/12/18 17:28:20;;;;;;;3.55;1.95;;;13.40;65.80;;;;;;20825244;28;20133;-78
2021/12/18 17:38:24;;;;;;;5.95;1.30;;;13.10;66.50;;;;;;20826033;28;20068;-76
2021/12/18 17:48:29;;;;;;;4.40;1.33;;;12.90;67.20;;;;;;20802270;28;20128;-83
2021/12/18 17:58:30;;;;;;;6.10;1.75;;;12.70;67.70;;;;;;20815676;28;20064;-82
2021/12/18 18:08:30;;;;;;;7.90;1.67;;;12.60;68.20;;;;;;20808270;28;20399;-80
2021/12/18 18:18:34;;;;;;;2.83;1.70;;;12.50;68.40;;;;;;20807374;28;20038;-79
2021/12/18 18:28:35;;;;;;;6.47;2.85;;;12.50;68.60;;;;;;20806969;28;20045;-81
2021/12/18 18:38:35;;;;;;;6.28;1.50;;;12.50;68.70;;;;;;20832897;28;20061;-80
2021/12/18 18:48:38;;;;;;;3.67;1.50;;;12.50;68.70;;;;;;20821786;28;20119;-80
2021/12/18 18:58:39;;;;;;;4.78;1.75;;;12.60;68.60;;;;;;20820768;28;20029;-81
2021/12/18 19:08:41;;;;;;;2.17;1.30;;;12.60;68.50;;;;;;20837019;28;20399;-79
2021/12/18 19:18:47;;;;;;;8.03;1.73;;;12.70;69.20;;;;;;20819407;28;20036;-81
2021/12/18 19:28:48;;;;;;;3.80;1.27;;;12.60;68.30;;;;;;20820622;28;20304;-81
2021/12/18 19:38:54;;;;;;;3.28;1.33;;;12.60;68.30;;;;;;20816432;28;20045;-81
2021/12/18 19:48:55;;;;;;;3.67;1.65;;;12.70;68.40;;;;;;20816069;28;20038;-77
2021/12/18 19:58:56;;;;;;;3.20;1.58;;;12.60;68.30;;;;;;20814169;28;20037;-76
2021/12/18 20:08:56;;;;;;;5.93;1.70;;;12.60;68.30;;;;;;20815750;28;20037;-77
2021/12/18 20:18:57;;;;;;;4.57;1.40;;;12.60;68.30;;;;;;20813047;28;20029;-78
2021/12/18 20:29:04;;;;;;;6.43;1.58;;;12.60;68.30;;;;;;20786958;28;20030;-79
2021/12/18 20:39:05;;;;;;;3.25;1.30;;;12.60;68.30;;;;;;20882998;28;20039;-78
2021/12/18 20:49:07;;;;;;;4.38;1.52;;;12.60;68.30;;;;;;20911136;28;20033;-79
2021/12/18 20:59:09;;;;;;;4.90;1.95;;;12.60;68.30;;;;;;20892902;28;20048;-79
2021/12/18 21:09:12;;;;;;;6.57;1.67;;;12.60;68.30;;;;;;20892040;28;20120;-77
2021/12/18 21:19:17;;;;;;;4.35;1.50;;;12.50;68.30;;;;;;20893333;28;20097;-77
2021/12/18 21:29:17;;;;;;;5.45;2.20;;;12.50;68.30;;;;;;20828260;28;20091;-78
2021/12/18 21:39:20;;;;;;;6.30;1.40;;;12.50;68.20;;;;;;20787791;28;20423;-77
2021/12/18 21:49:20;;;;;;;4.22;1.58;;;12.50;68.20;;;;;;20833025;28;20036;-76
2021/12/18 21:59:21;;;;;;;2.17;1.15;;;12.50;68.20;;;;;;20856438;28;20029;-78
2021/12/18 22:09:22;;;;;;;5.50;2.10;;;12.50;68.20;;;;;;20899069;28;20094;-78
2021/12/18 22:19:24;;;;;;;3.13;0.95;;;12.50;68.20;;;;;;20905212;28;20744;-76
2021/12/18 22:29:24;;;;;;;2.97;1.17;;;12.50;68.20;;;;;;20904603;28;20037;-76
2021/12/18 22:39:25;;;;;;;4.90;1.20;;;12.50;68.10;;;;;;20903350;28;20068;-78
2021/12/18 22:49:26;;;;;;;2.13;1.00;;;12.40;68.60;;;;;;20920287;28;20303;-77
2021/12/18 22:59:26;;;;;;;4.23;1.50;;;12.40;67.90;;;;;;20901827;28;20033;-77
2021/12/18 23:09:27;;;;;;;3.70;0.98;;;12.50;67.90;;;;;;20916595;28;20305;-78
2021/12/18 23:29:30;;;;;;;1.80;0.75;;;12.50;67.70;;;;;;20915008;28;20052;-77
2021/12/18 23:39:30;;;;;;;4.40;1.10;;;12.50;67.60;;;;;;20914280;28;20029;-77
2021/12/18 23:49:31;;;;;;;2.50;1.48;;;12.40;67.50;;;;;;20897168;28;20090;-78
2021/12/18 23:59:35;;;;;;;2.92;1.05;;;12.40;67.50;;;;;;20897118;28;20041;-79
